»·PEaware :: WAT847 KBOI-KPDX

WAT847 :: KBOI-KPDX

FLIGHT INFORMATION

Flight Status: Arrived
Operator:
Walker Air Transport
More flights by this operator :: More flights under this callsign
Pilot: Charlton B. (28558)
Aircraft: EMBRAER EMB-170/175
(E170)
More flights by this aircraft type
Origin: KBOI Boise Air Terminal/Gowen
United States
Destination: KPDX Portland Intl
United States
More flights between these airports :: More routes between these airports
Route: BOI3 BOI SAILL BUEEL JOTBA HHOOD4
File this flight plan on PilotEdge
Remarks: RMK / SIMBRIEF
Altitude:
(Current/Filed)
38,000ft
Speed:
(Current/Filed)
430kts
Departed: 05-Jul-22 04:43 PM
Arrived: 05-Jul-22 05:47 PM
Distance/Time
Traveled:
298nm/1:04
Distance/Time
To Go:
Arrived

Flight Plot

Page will automatically refresh every two minutes.

Flight plan parsing failed; only flown route is shown


Map Options




Map Legend


Flown Route
Filed Route
Departure Airport
Arrival Airport
Navaid (VOR, NDB)
Fix

Horizontal Profiles

Position Reports

Time Latitude Longitude Heading Altitude Ground
Speed
05-Jul-22 16:04 43.567725 -116.224075 120 2846ft 0kts
05-Jul-22 16:05 43.567725 -116.224075 120 2846ft 0kts
05-Jul-22 16:06 43.567725 -116.224075 120 2846ft 0kts
05-Jul-22 16:07 43.567725 -116.224075 120 2846ft 0kts
05-Jul-22 16:08 43.567725 -116.224075 120 2846ft 0kts
05-Jul-22 16:09 43.567725 -116.224075 120 2846ft 0kts
05-Jul-22 16:10 43.567725 -116.224075 120 2846ft 0kts
05-Jul-22 16:11 43.567725 -116.224075 120 2846ft 0kts
05-Jul-22 16:12 43.567725 -116.224075 120 2846ft 0kts
05-Jul-22 16:13 43.567725 -116.224075 120 2846ft 0kts
05-Jul-22 16:14 43.567725 -116.224075 120 2846ft 0kts
05-Jul-22 16:15 43.567725 -116.224075 120 2846ft 0kts
05-Jul-22 16:16 43.567725 -116.224075 120 2846ft 0kts
05-Jul-22 16:17 43.567725 -116.224075 120 2846ft 0kts
05-Jul-22 16:18 43.567725 -116.224075 120 2846ft 0kts
05-Jul-22 16:19 43.567725 -116.224075 120 2846ft 0kts
05-Jul-22 16:20 43.567725 -116.224075 120 2846ft 0kts
05-Jul-22 16:21 43.567725 -116.224075 120 2846ft 0kts
05-Jul-22 16:22 43.567725 -116.224075 120 2846ft 0kts
05-Jul-22 16:23 43.567725 -116.224075 120 2846ft 0kts
05-Jul-22 16:24 43.567725 -116.224075 120 2846ft 0kts
05-Jul-22 16:25 43.567725 -116.224075 120 2846ft 0kts
05-Jul-22 16:26 43.567725 -116.224075 120 2846ft 0kts
05-Jul-22 16:27 43.567725 -116.224075 120 2846ft 0kts
05-Jul-22 16:28 43.567725 -116.224075 120 2846ft 0kts
05-Jul-22 16:29 43.567725 -116.224075 120 2846ft 0kts
05-Jul-22 16:30 43.567725 -116.224075 120 2846ft 0kts
05-Jul-22 16:31 43.567725 -116.224075 120 2846ft 0kts
05-Jul-22 16:32 43.567725 -116.224075 120 2846ft 0kts
05-Jul-22 16:33 43.567725 -116.224075 120 2846ft 0kts
05-Jul-22 16:34 43.567725 -116.224075 120 2846ft 0kts
05-Jul-22 16:35 43.567725 -116.224075 120 2846ft 0kts
05-Jul-22 16:36 43.567679 -116.224070 205 2846ft 1kts
05-Jul-22 16:37 43.568613 -116.228510 296 2840ft 18kts
05-Jul-22 16:38 43.571130 -116.236248 279 2826ft 24kts
05-Jul-22 16:39 43.570541 -116.240896 252 2818ft 0kts
05-Jul-22 16:40 43.570541 -116.240896 252 2818ft 0kts
05-Jul-22 16:41 43.570525 -116.240966 252 2818ft 5kts
05-Jul-22 16:42 43.568665 -116.238598 113 2826ft 64kts
05-Jul-22 16:43 43.550123 -116.181977 111 3779ft 212kts
05-Jul-22 16:44 43.527342 -116.101194 111 5905ft 231kts
05-Jul-22 16:45 43.501480 -116.004681 111 8138ft 292kts
05-Jul-22 16:46 43.433165 -115.985897 212 11065ft 311kts
05-Jul-22 16:47 43.393111 -116.094695 284 13582ft 353kts
05-Jul-22 16:48 43.439345 -116.221853 291 16340ft 369kts
05-Jul-22 16:49 43.483134 -116.357239 290 18829ft 380kts
05-Jul-22 16:50 43.528111 -116.496310 290 20998ft 391kts
05-Jul-22 16:51 43.574140 -116.638905 289 22961ft 399kts
05-Jul-22 16:52 43.621054 -116.784615 288 24774ft 406kts
05-Jul-22 16:53 43.668746 -116.933041 288 26431ft 412kts
05-Jul-22 16:54 43.716679 -117.082500 289 28008ft 414kts
05-Jul-22 16:55 43.764670 -117.234492 289 29282ft 420kts
05-Jul-22 16:56 43.812957 -117.388242 288 30491ft 423kts
05-Jul-22 16:57 43.860654 -117.540935 288 31914ft 417kts
05-Jul-22 16:58 43.919963 -117.685531 296 33119ft 418kts
05-Jul-22 16:59 43.983760 -117.824301 296 34186ft 413kts
05-Jul-22 17:00 44.047050 -117.962579 296 35020ft 411kts
05-Jul-22 17:01 44.109964 -118.100580 296 35758ft 409kts
05-Jul-22 17:02 44.171895 -118.237002 296 36356ft 406kts
05-Jul-22 17:03 44.233081 -118.372183 296 37484ft 386kts
05-Jul-22 17:04 44.291205 -118.501368 296 37753ft 383kts
05-Jul-22 17:05 44.350552 -118.634053 296 37343ft 395kts
05-Jul-22 17:06 44.410267 -118.767824 295 37764ft 389kts
05-Jul-22 17:07 44.468262 -118.898412 295 37990ft 385kts
05-Jul-22 17:08 44.526633 -119.030525 296 37991ft 388kts
05-Jul-22 17:09 44.585033 -119.163262 296 37991ft 391kts
05-Jul-22 17:10 44.643887 -119.297641 296 37991ft 394kts
05-Jul-22 17:11 44.703046 -119.433347 296 37990ft 397kts
05-Jul-22 17:12 44.762421 -119.570196 296 37989ft 401kts
05-Jul-22 17:13 44.822263 -119.708771 296 37994ft 403kts
05-Jul-22 17:14 44.881971 -119.847672 296 37983ft 404kts
05-Jul-22 17:15 44.941787 -119.987519 296 37922ft 406kts
05-Jul-22 17:16 45.001155 -120.127042 295 37918ft 404kts
05-Jul-22 17:17 45.060411 -120.267081 294 37410ft 420kts
05-Jul-22 17:18 45.123053 -120.415653 294 34722ft 422kts
05-Jul-22 17:19 45.183407 -120.563280 292 32041ft 427kts
05-Jul-22 17:20 45.242284 -120.715798 292 29385ft 436kts
05-Jul-22 17:21 45.302021 -120.871115 293 26735ft 429kts
05-Jul-22 17:22 45.359207 -121.020710 293 24216ft 415kts
05-Jul-22 17:23 45.414777 -121.167055 293 21828ft 405kts
05-Jul-22 17:24 45.451181 -121.318161 281 19613ft 381kts
05-Jul-22 17:25 45.479158 -121.459316 281 17656ft 347kts
05-Jul-22 17:26 45.505295 -121.592008 282 16025ft 333kts
05-Jul-22 17:27 45.526732 -121.714878 270 14888ft 299kts
05-Jul-22 17:28 45.532545 -121.836145 270 14067ft 299kts
05-Jul-22 17:29 45.541036 -121.957120 282 13241ft 299kts
05-Jul-22 17:30 45.563962 -122.073552 282 12417ft 297kts
05-Jul-22 17:31 45.586942 -122.189369 283 11592ft 295kts
05-Jul-22 17:32 45.610298 -122.304554 283 10653ft 294kts
05-Jul-22 17:33 45.632941 -122.414786 283 8991ft 273kts
05-Jul-22 17:34 45.663682 -122.516854 294 7225ft 265kts
05-Jul-22 17:35 45.693359 -122.602899 297 5806ft 230kts
05-Jul-22 17:36 45.722334 -122.683840 297 4263ft 220kts
05-Jul-22 17:37 45.749568 -122.763552 295 3997ft 212kts
05-Jul-22 17:38 45.774849 -122.839302 295 4002ft 198kts
05-Jul-22 17:39 45.742397 -122.887237 178 3472ft 197kts
05-Jul-22 17:40 45.697541 -122.846594 144 3009ft 185kts
05-Jul-22 17:41 45.669718 -122.788322 118 3018ft 168kts
05-Jul-22 17:42 45.647444 -122.730779 118 2143ft 149kts
05-Jul-22 17:43 45.628850 -122.682866 117 1438ft 136kts
05-Jul-22 17:44 45.610561 -122.635862 118 702ft 132kts
05-Jul-22 17:45 45.592532 -122.589679 118 38ft 121kts
05-Jul-22 17:46 45.586367 -122.576424 209 35ft 11kts
05-Jul-22 17:47 45.586371 -122.577130 299 35ft 9kts
05-Jul-22 17:48 45.588956 -122.583684 297 35ft 15kts
05-Jul-22 17:49 45.590225 -122.589994 232 35ft 8kts
05-Jul-22 17:50 45.589892 -122.590496 225 35ft 0kts

Navigation Log

Ident Type
Flight plan parsing failed, navigation log unavailable